sensor_id;sensor_type;location;lat;lon;timestamp;P1;durP1;ratioP1;P2;durP2;ratioP2
6823;SDS011;58633;49.470;11.004;2023-06-10T00:01:45;8.25;;;6.20;;
6823;SDS011;58633;49.470;11.004;2023-06-10T00:04:14;6.78;;;5.95;;
6823;SDS011;58633;49.470;11.004;2023-06-10T00:06:41;6.82;;;6.13;;
6823;SDS011;58633;49.470;11.004;2023-06-10T00:09:06;6.65;;;5.88;;
6823;SDS011;58633;49.470;11.004;2023-06-10T00:11:35;7.60;;;6.05;;
6823;SDS011;58633;49.470;11.004;2023-06-10T00:14:01;6.80;;;6.18;;
6823;SDS011;58633;49.470;11.004;2023-06-10T00:16:27;8.70;;;5.65;;
6823;SDS011;58633;49.470;11.004;2023-06-10T00:18:53;6.50;;;5.75;;
6823;SDS011;58633;49.470;11.004;2023-06-10T00:21:32;6.65;;;5.80;;
6823;SDS011;58633;49.470;11.004;2023-06-10T00:24:08;6.07;;;5.35;;
6823;SDS011;58633;49.470;11.004;2023-06-10T00:26:37;6.40;;;5.80;;
6823;SDS011;58633;49.470;11.004;2023-06-10T00:29:04;6.20;;;5.47;;
6823;SDS011;58633;49.470;11.004;2023-06-10T00:31:30;6.82;;;6.07;;
6823;SDS011;58633;49.470;11.004;2023-06-10T00:33:55;6.57;;;5.90;;
6823;SDS011;58633;49.470;11.004;2023-06-10T00:36:21;7.72;;;6.20;;
6823;SDS011;58633;49.470;11.004;2023-06-10T00:38:47;6.88;;;5.93;;
6823;SDS011;58633;49.470;11.004;2023-06-10T00:41:12;8.00;;;6.32;;
6823;SDS011;58633;49.470;11.004;2023-06-10T00:43:38;7.18;;;6.47;;
6823;SDS011;58633;49.470;11.004;2023-06-10T00:46:04;7.03;;;6.32;;
6823;SDS011;58633;49.470;11.004;2023-06-10T00:48:30;6.80;;;6.10;;
6823;SDS011;58633;49.470;11.004;2023-06-10T00:50:56;7.13;;;6.15;;
6823;SDS011;58633;49.470;11.004;2023-06-10T00:53:22;7.68;;;6.88;;
6823;SDS011;58633;49.470;11.004;2023-06-10T00:55:48;9.48;;;6.90;;
6823;SDS011;58633;49.470;11.004;2023-06-10T00:58:13;8.43;;;6.43;;
6823;SDS011;58633;49.470;11.004;2023-06-10T01:00:40;9.32;;;7.07;;
6823;SDS011;58633;49.470;11.004;2023-06-10T01:03:05;7.03;;;6.22;;
6823;SDS011;58633;49.470;11.004;2023-06-10T01:05:32;7.55;;;6.75;;
6823;SDS011;58633;49.470;11.004;2023-06-10T01:11:19;7.95;;;6.45;;
6823;SDS011;58633;49.470;11.004;2023-06-10T01:13:49;9.70;;;7.15;;
6823;SDS011;58633;49.470;11.004;2023-06-10T01:16:16;7.82;;;7.03;;
6823;SDS011;58633;49.470;11.004;2023-06-10T01:18:44;8.00;;;6.93;;
6823;SDS011;58633;49.470;11.004;2023-06-10T01:21:13;9.55;;;7.25;;
6823;SDS011;58633;49.470;11.004;2023-06-10T01:23:44;8.18;;;7.35;;
6823;SDS011;58633;49.470;11.004;2023-06-10T01:26:10;8.57;;;7.30;;
6823;SDS011;58633;49.470;11.004;2023-06-10T01:28:44;13.25;;;6.85;;
6823;SDS011;58633;49.470;11.004;2023-06-10T01:34:09;10.13;;;7.25;;
6823;SDS011;58633;49.470;11.004;2023-06-10T01:36:36;7.88;;;7.07;;
6823;SDS011;58633;49.470;11.004;2023-06-10T01:39:03;7.68;;;6.88;;
6823;SDS011;58633;49.470;11.004;2023-06-10T01:41:30;8.50;;;7.35;;
6823;SDS011;58633;49.470;11.004;2023-06-10T01:43:57;7.82;;;6.55;;
6823;SDS011;58633;49.470;11.004;2023-06-10T01:46:23;8.82;;;7.13;;
6823;SDS011;58633;49.470;11.004;2023-06-10T01:48:48;8.85;;;6.78;;
6823;SDS011;58633;49.470;11.004;2023-06-10T01:51:14;8.05;;;6.45;;
6823;SDS011;58633;49.470;11.004;2023-06-10T01:53:40;8.63;;;6.70;;
6823;SDS011;58633;49.470;11.004;2023-06-10T01:56:05;8.48;;;6.95;;
6823;SDS011;58633;49.470;11.004;2023-06-10T01:58:31;9.25;;;7.45;;
6823;SDS011;58633;49.470;11.004;2023-06-10T02:00:56;9.98;;;7.60;;
6823;SDS011;58633;49.470;11.004;2023-06-10T02:03:22;10.27;;;7.50;;
6823;SDS011;58633;49.470;11.004;2023-06-10T02:05:48;7.93;;;7.07;;
6823;SDS011;58633;49.470;11.004;2023-06-10T02:08:14;8.57;;;7.18;;
6823;SDS011;58633;49.470;11.004;2023-06-10T02:10:40;8.20;;;7.28;;
6823;SDS011;58633;49.470;11.004;2023-06-10T02:13:05;7.57;;;6.88;;
6823;SDS011;58633;49.470;11.004;2023-06-10T02:15:31;8.23;;;7.32;;
6823;SDS011;58633;49.470;11.004;2023-06-10T02:17:56;8.13;;;7.28;;
6823;SDS011;58633;49.470;11.004;2023-06-10T02:20:22;11.57;;;7.60;;
6823;SDS011;58633;49.470;11.004;2023-06-10T02:22:48;8.68;;;7.07;;
6823;SDS011;58633;49.470;11.004;2023-06-10T02:25:14;8.45;;;6.95;;
6823;SDS011;58633;49.470;11.004;2023-06-10T02:27:39;9.82;;;7.22;;
6823;SDS011;58633;49.470;11.004;2023-06-10T02:30:05;8.75;;;7.85;;
6823;SDS011;58633;49.470;11.004;2023-06-10T02:32:34;11.70;;;8.18;;
6823;SDS011;58633;49.470;11.004;2023-06-10T02:35:00;11.73;;;7.35;;
6823;SDS011;58633;49.470;11.004;2023-06-10T02:37:26;9.02;;;7.47;;
6823;SDS011;58633;49.470;11.004;2023-06-10T02:39:51;9.95;;;7.15;;
6823;SDS011;58633;49.470;11.004;2023-06-10T02:42:17;9.77;;;7.25;;
6823;SDS011;58633;49.470;11.004;2023-06-10T02:44:42;8.80;;;7.93;;
6823;SDS011;58633;49.470;11.004;2023-06-10T02:47:08;7.55;;;6.75;;
6823;SDS011;58633;49.470;11.004;2023-06-10T02:49:33;9.07;;;7.22;;
6823;SDS011;58633;49.470;11.004;2023-06-10T02:51:59;8.35;;;7.53;;
6823;SDS011;58633;49.470;11.004;2023-06-10T02:54:25;10.07;;;8.00;;
6823;SDS011;58633;49.470;11.004;2023-06-10T02:56:51;8.90;;;7.32;;
6823;SDS011;58633;49.470;11.004;2023-06-10T02:59:17;10.07;;;7.05;;
6823;SDS011;58633;49.470;11.004;2023-06-10T03:01:43;8.35;;;7.53;;
6823;SDS011;58633;49.470;11.004;2023-06-10T03:04:08;8.43;;;7.15;;
6823;SDS011;58633;49.470;11.004;2023-06-10T03:06:34;8.45;;;7.55;;
6823;SDS011;58633;49.470;11.004;2023-06-10T03:09:00;8.32;;;6.88;;
6823;SDS011;58633;49.470;11.004;2023-06-10T03:11:26;8.23;;;7.25;;
6823;SDS011;58633;49.470;11.004;2023-06-10T03:13:52;10.00;;;7.57;;
6823;SDS011;58633;49.470;11.004;2023-06-10T03:16:18;8.07;;;7.28;;
6823;SDS011;58633;49.470;11.004;2023-06-10T03:18:44;10.18;;;7.57;;
6823;SDS011;58633;49.470;11.004;2023-06-10T03:21:10;11.00;;;7.60;;
6823;SDS011;58633;49.470;11.004;2023-06-10T03:23:36;10.43;;;7.43;;
6823;SDS011;58633;49.470;11.004;2023-06-10T03:26:02;8.55;;;7.10;;
6823;SDS011;58633;49.470;11.004;2023-06-10T03:28:27;9.38;;;7.25;;
6823;SDS011;58633;49.470;11.004;2023-06-10T03:30:53;8.27;;;7.32;;
6823;SDS011;58633;49.470;11.004;2023-06-10T03:33:18;8.43;;;7.57;;
6823;SDS011;58633;49.470;11.004;2023-06-10T03:35:45;9.15;;;7.22;;
6823;SDS011;58633;49.470;11.004;2023-06-10T03:38:10;8.18;;;7.38;;
6823;SDS011;58633;49.470;11.004;2023-06-10T03:40:36;8.38;;;7.50;;
6823;SDS011;58633;49.470;11.004;2023-06-10T03:43:02;7.90;;;7.10;;
6823;SDS011;58633;49.470;11.004;2023-06-10T03:45:27;8.30;;;6.90;;
6823;SDS011;58633;49.470;11.004;2023-06-10T03:47:53;8.35;;;7.45;;
6823;SDS011;58633;49.470;11.004;2023-06-10T03:50:19;7.72;;;6.97;;
6823;SDS011;58633;49.470;11.004;2023-06-10T03:52:44;8.38;;;7.45;;
6823;SDS011;58633;49.470;11.004;2023-06-10T03:55:10;7.97;;;7.07;;
6823;SDS011;58633;49.470;11.004;2023-06-10T03:57:38;11.93;;;7.35;;
6823;SDS011;58633;49.470;11.004;2023-06-10T04:00:04;9.40;;;6.95;;
6823;SDS011;58633;49.470;11.004;2023-06-10T04:02:37;8.25;;;7.20;;
6823;SDS011;58633;49.470;11.004;2023-06-10T04:05:11;8.68;;;7.15;;
6823;SDS011;58633;49.470;11.004;2023-06-10T04:07:37;7.68;;;6.95;;
6823;SDS011;58633;49.470;11.004;2023-06-10T04:10:04;8.27;;;7.45;;
6823;SDS011;58633;49.470;11.004;2023-06-10T04:12:31;7.90;;;6.88;;
6823;SDS011;58633;49.470;11.004;2023-06-10T04:14:56;8.25;;;7.07;;
6823;SDS011;58633;49.470;11.004;2023-06-10T04:17:22;9.45;;;8.38;;
6823;SDS011;58633;49.470;11.004;2023-06-10T04:19:47;8.25;;;6.85;;
6823;SDS011;58633;49.470;11.004;2023-06-10T04:22:13;8.50;;;7.43;;
6823;SDS011;58633;49.470;11.004;2023-06-10T04:24:38;8.35;;;7.05;;
6823;SDS011;58633;49.470;11.004;2023-06-10T04:27:04;9.82;;;7.13;;
6823;SDS011;58633;49.470;11.004;2023-06-10T04:29:30;8.20;;;7.40;;
6823;SDS011;58633;49.470;11.004;2023-06-10T04:31:55;8.15;;;7.03;;
6823;SDS011;58633;49.470;11.004;2023-06-10T04:34:21;12.68;;;7.60;;
6823;SDS011;58633;49.470;11.004;2023-06-10T04:36:46;7.93;;;7.07;;
6823;SDS011;58633;49.470;11.004;2023-06-10T04:39:12;8.00;;;7.20;;
6823;SDS011;58633;49.470;11.004;2023-06-10T04:41:38;8.00;;;7.20;;
6823;SDS011;58633;49.470;11.004;2023-06-10T04:44:03;8.32;;;7.05;;
6823;SDS011;58633;49.470;11.004;2023-06-10T04:46:29;8.73;;;7.55;;
6823;SDS011;58633;49.470;11.004;2023-06-10T04:48:56;8.80;;;7.97;;
6823;SDS011;58633;49.470;11.004;2023-06-10T04:51:22;9.10;;;7.78;;
6823;SDS011;58633;49.470;11.004;2023-06-10T04:53:47;9.32;;;7.30;;
6823;SDS011;58633;49.470;11.004;2023-06-10T04:56:13;8.23;;;7.43;;
6823;SDS011;58633;49.470;11.004;2023-06-10T04:58:40;11.45;;;8.23;;
6823;SDS011;58633;49.470;11.004;2023-06-10T05:01:05;9.07;;;7.18;;
6823;SDS011;58633;49.470;11.004;2023-06-10T05:03:31;8.45;;;7.55;;
6823;SDS011;58633;49.470;11.004;2023-06-10T05:05:56;10.07;;;8.00;;
6823;SDS011;58633;49.470;11.004;2023-06-10T05:08:22;8.07;;;7.28;;
6823;SDS011;58633;49.470;11.004;2023-06-10T05:10:47;10.27;;;7.32;;
6823;SDS011;58633;49.470;11.004;2023-06-10T05:13:13;8.32;;;7.30;;
6823;SDS011;58633;49.470;11.004;2023-06-10T05:15:38;8.80;;;7.60;;
6823;SDS011;58633;49.470;11.004;2023-06-10T05:18:04;11.85;;;7.70;;
6823;SDS011;58633;49.470;11.004;2023-06-10T05:20:29;8.77;;;7.65;;
6823;SDS011;58633;49.470;11.004;2023-06-10T05:22:55;10.38;;;8.00;;
6823;SDS011;58633;49.470;11.004;2023-06-10T05:25:20;8.60;;;7.57;;
6823;SDS011;58633;49.470;11.004;2023-06-10T05:27:47;9.05;;;8.13;;
6823;SDS011;58633;49.470;11.004;2023-06-10T05:30:12;10.10;;;8.35;;
6823;SDS011;58633;49.470;11.004;2023-06-10T05:32:38;9.23;;;8.05;;
6823;SDS011;58633;49.470;11.004;2023-06-10T05:35:03;9.85;;;7.75;;
6823;SDS011;58633;49.470;11.004;2023-06-10T05:37:29;10.75;;;8.20;;
6823;SDS011;58633;49.470;11.004;2023-06-10T05:39:55;10.80;;;8.27;;
6823;SDS011;58633;49.470;11.004;2023-06-10T05:42:20;10.95;;;8.23;;
6823;SDS011;58633;49.470;11.004;2023-06-10T05:44:46;9.43;;;8.27;;
6823;SDS011;58633;49.470;11.004;2023-06-10T05:47:12;8.90;;;8.00;;
6823;SDS011;58633;49.470;11.004;2023-06-10T05:49:37;8.55;;;7.65;;
6823;SDS011;58633;49.470;11.004;2023-06-10T05:52:03;9.40;;;8.02;;
6823;SDS011;58633;49.470;11.004;2023-06-10T05:54:29;8.05;;;7.25;;
6823;SDS011;58633;49.470;11.004;2023-06-10T05:56:54;9.75;;;7.00;;
6823;SDS011;58633;49.470;11.004;2023-06-10T05:59:20;9.23;;;7.03;;
6823;SDS011;58633;49.470;11.004;2023-06-10T06:01:47;8.68;;;7.00;;
6823;SDS011;58633;49.470;11.004;2023-06-10T06:04:13;8.50;;;7.60;;
6823;SDS011;58633;49.470;11.004;2023-06-10T06:06:39;8.60;;;7.80;;
6823;SDS011;58633;49.470;11.004;2023-06-10T06:09:05;8.85;;;7.85;;
6823;SDS011;58633;49.470;11.004;2023-06-10T06:11:31;10.52;;;7.72;;
6823;SDS011;58633;49.470;11.004;2023-06-10T06:13:58;9.65;;;8.00;;
6823;SDS011;58633;49.470;11.004;2023-06-10T06:16:23;8.90;;;8.00;;
6823;SDS011;58633;49.470;11.004;2023-06-10T06:18:49;8.40;;;7.20;;
6823;SDS011;58633;49.470;11.004;2023-06-10T06:21:15;9.50;;;8.00;;
6823;SDS011;58633;49.470;11.004;2023-06-10T06:23:40;10.00;;;7.68;;
6823;SDS011;58633;49.470;11.004;2023-06-10T06:26:06;9.23;;;8.27;;
6823;SDS011;58633;49.470;11.004;2023-06-10T06:28:31;12.52;;;10.52;;
6823;SDS011;58633;49.470;11.004;2023-06-10T06:30:57;12.13;;;8.98;;
6823;SDS011;58633;49.470;11.004;2023-06-10T06:33:22;8.85;;;7.40;;
6823;SDS011;58633;49.470;11.004;2023-06-10T06:35:48;10.27;;;7.85;;
6823;SDS011;58633;49.470;11.004;2023-06-10T06:38:13;8.68;;;7.40;;
6823;SDS011;58633;49.470;11.004;2023-06-10T06:40:39;7.82;;;7.03;;
6823;SDS011;58633;49.470;11.004;2023-06-10T06:43:04;9.50;;;7.10;;
6823;SDS011;58633;49.470;11.004;2023-06-10T06:45:30;7.25;;;6.47;;
6823;SDS011;58633;49.470;11.004;2023-06-10T06:47:58;9.18;;;7.13;;
6823;SDS011;58633;49.470;11.004;2023-06-10T06:50:24;8.20;;;7.32;;
6823;SDS011;58633;49.470;11.004;2023-06-10T06:52:50;7.72;;;7.00;;
6823;SDS011;58633;49.470;11.004;2023-06-10T06:55:15;7.72;;;6.93;;
6823;SDS011;58633;49.470;11.004;2023-06-10T06:57:41;7.93;;;7.13;;
6823;SDS011;58633;49.470;11.004;2023-06-10T07:00:07;8.00;;;7.20;;
6823;SDS011;58633;49.470;11.004;2023-06-10T07:02:34;7.65;;;6.80;;
6823;SDS011;58633;49.470;11.004;2023-06-10T07:05:00;8.02;;;7.03;;
6823;SDS011;58633;49.470;11.004;2023-06-10T07:07:25;7.30;;;6.60;;
6823;SDS011;58633;49.470;11.004;2023-06-10T07:09:51;7.93;;;7.00;;
6823;SDS011;58633;49.470;11.004;2023-06-10T07:12:17;8.07;;;7.03;;
6823;SDS011;58633;49.470;11.004;2023-06-10T07:14:43;7.55;;;6.75;;
6823;SDS011;58633;49.470;11.004;2023-06-10T07:17:09;7.75;;;6.95;;
6823;SDS011;58633;49.470;11.004;2023-06-10T07:19:35;7.63;;;6.88;;
6823;SDS011;58633;49.470;11.004;2023-06-10T07:22:01;8.93;;;6.85;;
6823;SDS011;58633;49.470;11.004;2023-06-10T07:24:26;7.93;;;7.05;;
6823;SDS011;58633;49.470;11.004;2023-06-10T07:26:52;6.97;;;6.28;;
6823;SDS011;58633;49.470;11.004;2023-06-10T07:29:17;6.90;;;6.30;;
6823;SDS011;58633;49.470;11.004;2023-06-10T07:31:43;7.18;;;6.45;;
6823;SDS011;58633;49.470;11.004;2023-06-10T07:34:08;6.03;;;5.43;;
6823;SDS011;58633;49.470;11.004;2023-06-10T07:36:34;6.80;;;5.18;;
6823;SDS011;58633;49.470;11.004;2023-06-10T07:38:59;5.82;;;5.32;;
6823;SDS011;58633;49.470;11.004;2023-06-10T07:41:25;5.95;;;5.35;;
6823;SDS011;58633;49.470;11.004;2023-06-10T07:43:52;6.18;;;5.57;;
6823;SDS011;58633;49.470;11.004;2023-06-10T07:46:20;5.72;;;5.22;;
6823;SDS011;58633;49.470;11.004;2023-06-10T07:48:46;5.90;;;5.25;;
6823;SDS011;58633;49.470;11.004;2023-06-10T07:51:12;5.93;;;5.32;;
6823;SDS011;58633;49.470;11.004;2023-06-10T07:53:37;5.65;;;5.15;;
6823;SDS011;58633;49.470;11.004;2023-06-10T07:56:03;5.90;;;5.40;;
6823;SDS011;58633;49.470;11.004;2023-06-10T07:58:29;5.57;;;5.13;;
6823;SDS011;58633;49.470;11.004;2023-06-10T08:00:55;8.40;;;5.28;;
6823;SDS011;58633;49.470;11.004;2023-06-10T08:03:21;5.88;;;5.20;;
6823;SDS011;58633;49.470;11.004;2023-06-10T08:05:46;5.68;;;5.20;;
6823;SDS011;58633;49.470;11.004;2023-06-10T08:08:12;5.18;;;4.68;;
6823;SDS011;58633;49.470;11.004;2023-06-10T08:10:38;5.22;;;4.65;;
6823;SDS011;58633;49.470;11.004;2023-06-10T08:13:04;5.32;;;4.63;;
6823;SDS011;58633;49.470;11.004;2023-06-10T08:15:29;4.82;;;4.43;;
6823;SDS011;58633;49.470;11.004;2023-06-10T08:17:55;4.50;;;4.10;;
6823;SDS011;58633;49.470;11.004;2023-06-10T08:20:21;5.10;;;4.70;;
6823;SDS011;58633;49.470;11.004;2023-06-10T08:22:47;6.75;;;4.22;;
6823;SDS011;58633;49.470;11.004;2023-06-10T08:25:12;5.00;;;4.50;;
6823;SDS011;58633;49.470;11.004;2023-06-10T08:27:38;4.47;;;4.00;;
6823;SDS011;58633;49.470;11.004;2023-06-10T08:30:04;5.82;;;3.80;;
6823;SDS011;58633;49.470;11.004;2023-06-10T08:32:30;4.40;;;4.00;;
6823;SDS011;58633;49.470;11.004;2023-06-10T08:34:56;4.40;;;4.00;;
6823;SDS011;58633;49.470;11.004;2023-06-10T08:37:21;4.65;;;4.25;;
6823;SDS011;58633;49.470;11.004;2023-06-10T08:39:48;5.97;;;3.90;;
6823;SDS011;58633;49.470;11.004;2023-06-10T08:44:54;5.15;;;3.60;;
6823;SDS011;58633;49.470;11.004;2023-06-10T08:47:22;4.05;;;3.75;;
6823;SDS011;58633;49.470;11.004;2023-06-10T08:49:49;5.07;;;3.45;;
6823;SDS011;58633;49.470;11.004;2023-06-10T08:52:17;3.47;;;3.20;;
6823;SDS011;58633;49.470;11.004;2023-06-10T08:54:57;3.92;;;3.63;;
6823;SDS011;58633;49.470;11.004;2023-06-10T08:57:28;4.13;;;3.33;;
6823;SDS011;58633;49.470;11.004;2023-06-10T08:59:56;3.67;;;3.10;;
6823;SDS011;58633;49.470;11.004;2023-06-10T09:02:23;3.70;;;3.40;;
6823;SDS011;58633;49.470;11.004;2023-06-10T09:04:50;3.70;;;3.40;;
6823;SDS011;58633;49.470;11.004;2023-06-10T09:07:16;3.63;;;3.17;;
6823;SDS011;58633;49.470;11.004;2023-06-10T09:09:43;4.60;;;3.72;;
6823;SDS011;58633;49.470;11.004;2023-06-10T09:12:10;3.60;;;3.30;;
6823;SDS011;58633;49.470;11.004;2023-06-10T09:14:37;3.00;;;2.80;;
6823;SDS011;58633;49.470;11.004;2023-06-10T09:17:03;3.50;;;3.30;;
6823;SDS011;58633;49.470;11.004;2023-06-10T09:19:30;4.15;;;3.75;;
6823;SDS011;58633;49.470;11.004;2023-06-10T09:21:56;3.85;;;3.55;;
6823;SDS011;58633;49.470;11.004;2023-06-10T09:24:22;4.45;;;3.33;;
6823;SDS011;58633;49.470;11.004;2023-06-10T09:26:48;6.32;;;3.80;;
6823;SDS011;58633;49.470;11.004;2023-06-10T09:29:15;3.53;;;3.33;;
6823;SDS011;58633;49.470;11.004;2023-06-10T09:31:41;4.03;;;3.63;;
6823;SDS011;58633;49.470;11.004;2023-06-10T09:34:10;4.15;;;3.60;;
6823;SDS011;58633;49.470;11.004;2023-06-10T09:36:38;3.42;;;3.22;;
6823;SDS011;58633;49.470;11.004;2023-06-10T09:39:12;4.05;;;3.70;;
6823;SDS011;58633;49.470;11.004;2023-06-10T09:41:41;4.05;;;3.50;;
6823;SDS011;58633;49.470;11.004;2023-06-10T09:46:46;4.88;;;3.55;;
6823;SDS011;58633;49.470;11.004;2023-06-10T09:49:12;3.67;;;3.38;;
6823;SDS011;58633;49.470;11.004;2023-06-10T09:51:44;3.55;;;3.22;;
6823;SDS011;58633;49.470;11.004;2023-06-10T09:54:18;4.05;;;3.75;;
6823;SDS011;58633;49.470;11.004;2023-06-10T09:56:46;4.00;;;3.70;;
6823;SDS011;58633;49.470;11.004;2023-06-10T09:59:13;3.80;;;3.50;;
6823;SDS011;58633;49.470;11.004;2023-06-10T10:01:39;3.42;;;3.17;;
6823;SDS011;58633;49.470;11.004;2023-06-10T10:04:04;3.97;;;3.58;;
6823;SDS011;58633;49.470;11.004;2023-06-10T10:06:30;3.92;;;3.63;;
6823;SDS011;58633;49.470;11.004;2023-06-10T10:08:55;4.05;;;3.75;;
6823;SDS011;58633;49.470;11.004;2023-06-10T10:11:21;3.80;;;3.50;;
6823;SDS011;58633;49.470;11.004;2023-06-10T10:13:48;3.72;;;3.42;;
6823;SDS011;58633;49.470;11.004;2023-06-10T10:16:19;4.80;;;3.88;;
6823;SDS011;58633;49.470;11.004;2023-06-10T10:18:51;3.92;;;3.63;;
6823;SDS011;58633;49.470;11.004;2023-06-10T10:21:21;3.65;;;3.35;;
6823;SDS011;58633;49.470;11.004;2023-06-10T10:26:24;3.70;;;3.47;;
6823;SDS011;58633;49.470;11.004;2023-06-10T10:28:53;3.95;;;3.55;;
6823;SDS011;58633;49.470;11.004;2023-06-10T10:31:22;3.65;;;3.40;;
6823;SDS011;58633;49.470;11.004;2023-06-10T10:33:51;4.03;;;3.63;;
6823;SDS011;58633;49.470;11.004;2023-06-10T10:36:22;3.58;;;3.28;;
6823;SDS011;58633;49.470;11.004;2023-06-10T10:38:48;3.60;;;3.30;;
6823;SDS011;58633;49.470;11.004;2023-06-10T10:41:17;3.47;;;3.17;;
6823;SDS011;58633;49.470;11.004;2023-06-10T10:43:44;3.67;;;3.47;;
6823;SDS011;58633;49.470;11.004;2023-06-10T10:46:12;3.70;;;3.40;;
6823;SDS011;58633;49.470;11.004;2023-06-10T10:48:40;3.67;;;3.42;;
6823;SDS011;58633;49.470;11.004;2023-06-10T10:51:09;3.78;;;3.47;;
6823;SDS011;58633;49.470;11.004;2023-06-10T10:53:38;3.28;;;3.08;;
6823;SDS011;58633;49.470;11.004;2023-06-10T10:56:09;3.67;;;3.42;;
6823;SDS011;58633;49.470;11.004;2023-06-10T10:58:39;3.42;;;3.13;;
6823;SDS011;58633;49.470;11.004;2023-06-10T11:01:11;4.05;;;3.10;;
6823;SDS011;58633;49.470;11.004;2023-06-10T11:03:44;3.83;;;3.42;;
6823;SDS011;58633;49.470;11.004;2023-06-10T11:06:12;4.60;;;3.28;;
6823;SDS011;58633;49.470;11.004;2023-06-10T11:14:13;3.88;;;3.55;;
6823;SDS011;58633;49.470;11.004;2023-06-10T11:16:58;3.45;;;3.25;;
6823;SDS011;58633;49.470;11.004;2023-06-10T11:22:05;3.67;;;3.38;;
6823;SDS011;58633;49.470;11.004;2023-06-10T11:24:31;3.58;;;3.30;;
6823;SDS011;58633;49.470;11.004;2023-06-10T11:27:14;3.78;;;3.47;;
6823;SDS011;58633;49.470;11.004;2023-06-10T11:29:54;3.53;;;3.33;;
6823;SDS011;58633;49.470;11.004;2023-06-10T11:32:25;4.00;;;3.70;;
6823;SDS011;58633;49.470;11.004;2023-06-10T11:34:55;3.72;;;3.53;;
6823;SDS011;58633;49.470;11.004;2023-06-10T11:37:21;3.95;;;3.60;;
6823;SDS011;58633;49.470;11.004;2023-06-10T11:39:47;3.90;;;3.60;;
6823;SDS011;58633;49.470;11.004;2023-06-10T11:42:13;4.32;;;3.80;;
6823;SDS011;58633;49.470;11.004;2023-06-10T11:44:47;4.18;;;3.88;;
6823;SDS011;58633;49.470;11.004;2023-06-10T11:47:16;3.70;;;3.40;;
6823;SDS011;58633;49.470;11.004;2023-06-10T11:49:42;3.72;;;3.42;;
6823;SDS011;58633;49.470;11.004;2023-06-10T11:52:08;3.20;;;3.00;;
6823;SDS011;58633;49.470;11.004;2023-06-10T11:54:33;3.42;;;3.20;;
6823;SDS011;58633;49.470;11.004;2023-06-10T11:56:59;2.90;;;2.80;;
6823;SDS011;58633;49.470;11.004;2023-06-10T11:59:33;3.20;;;3.00;;
6823;SDS011;58633;49.470;11.004;2023-06-10T12:01:59;3.28;;;2.97;;
6823;SDS011;58633;49.470;11.004;2023-06-10T12:04:24;3.45;;;2.92;;
6823;SDS011;58633;49.470;11.004;2023-06-10T12:06:54;3.20;;;3.00;;
6823;SDS011;58633;49.470;11.004;2023-06-10T12:11:53;2.95;;;2.80;;
6823;SDS011;58633;49.470;11.004;2023-06-10T12:17:35;3.20;;;3.00;;
6823;SDS011;58633;49.470;11.004;2023-06-10T12:20:06;3.20;;;3.00;;
6823;SDS011;58633;49.470;11.004;2023-06-10T12:22:40;3.03;;;2.83;;
6823;SDS011;58633;49.470;11.004;2023-06-10T12:25:08;3.33;;;3.13;;
6823;SDS011;58633;49.470;11.004;2023-06-10T12:27:34;3.25;;;3.05;;
6823;SDS011;58633;49.470;11.004;2023-06-10T12:30:02;2.92;;;2.72;;
6823;SDS011;58633;49.470;11.004;2023-06-10T12:32:39;4.82;;;2.80;;
6823;SDS011;58633;49.470;11.004;2023-06-10T12:35:10;2.78;;;2.58;;
6823;SDS011;58633;49.470;11.004;2023-06-10T12:37:39;2.65;;;2.47;;
6823;SDS011;58633;49.470;11.004;2023-06-10T12:40:07;3.13;;;2.92;;
6823;SDS011;58633;49.470;11.004;2023-06-10T12:42:34;3.88;;;2.58;;
6823;SDS011;58633;49.470;11.004;2023-06-10T12:45:01;2.72;;;2.53;;
6823;SDS011;58633;49.470;11.004;2023-06-10T12:47:30;2.85;;;2.65;;
6823;SDS011;58633;49.470;11.004;2023-06-10T12:50:00;2.65;;;2.45;;
6823;SDS011;58633;49.470;11.004;2023-06-10T12:52:26;2.90;;;2.70;;
6823;SDS011;58633;49.470;11.004;2023-06-10T12:54:53;2.55;;;2.40;;
6823;SDS011;58633;49.470;11.004;2023-06-10T12:57:20;2.65;;;2.55;;
6823;SDS011;58633;49.470;11.004;2023-06-10T12:59:46;2.85;;;2.65;;
6823;SDS011;58633;49.470;11.004;2023-06-10T13:02:17;2.63;;;2.53;;
6823;SDS011;58633;49.470;11.004;2023-06-10T13:04:48;2.80;;;2.70;;
6823;SDS011;58633;49.470;11.004;2023-06-10T13:07:14;2.72;;;2.53;;
6823;SDS011;58633;49.470;11.004;2023-06-10T13:09:40;4.18;;;2.83;;
6823;SDS011;58633;49.470;11.004;2023-06-10T13:12:06;2.85;;;2.65;;
6823;SDS011;58633;49.470;11.004;2023-06-10T13:14:32;3.25;;;2.95;;
6823;SDS011;58633;49.470;11.004;2023-06-10T13:16:58;4.40;;;2.80;;
6823;SDS011;58633;49.470;11.004;2023-06-10T13:19:24;2.70;;;2.50;;
6823;SDS011;58633;49.470;11.004;2023-06-10T13:21:49;4.40;;;2.97;;
6823;SDS011;58633;49.470;11.004;2023-06-10T13:24:16;3.60;;;2.65;;
6823;SDS011;58633;49.470;11.004;2023-06-10T13:26:42;2.78;;;2.58;;
6823;SDS011;58633;49.470;11.004;2023-06-10T13:29:07;2.97;;;2.75;;
6823;SDS011;58633;49.470;11.004;2023-06-10T13:31:38;2.60;;;2.40;;
6823;SDS011;58633;49.470;11.004;2023-06-10T13:34:04;2.90;;;2.70;;
6823;SDS011;58633;49.470;11.004;2023-06-10T13:36:30;2.70;;;2.50;;
6823;SDS011;58633;49.470;11.004;2023-06-10T13:38:55;2.60;;;2.50;;
6823;SDS011;58633;49.470;11.004;2023-06-10T13:41:21;2.60;;;2.40;;
6823;SDS011;58633;49.470;11.004;2023-06-10T13:43:46;2.22;;;2.13;;
6823;SDS011;58633;49.470;11.004;2023-06-10T13:46:12;2.30;;;2.20;;
6823;SDS011;58633;49.470;11.004;2023-06-10T13:48:38;2.70;;;2.50;;
6823;SDS011;58633;49.470;11.004;2023-06-10T13:51:03;3.25;;;2.25;;
6823;SDS011;58633;49.470;11.004;2023-06-10T13:53:29;2.40;;;2.20;;
6823;SDS011;58633;49.470;11.004;2023-06-10T13:55:54;2.28;;;2.17;;
6823;SDS011;58633;49.470;11.004;2023-06-10T13:58:20;2.50;;;2.30;;
6823;SDS011;58633;49.470;11.004;2023-06-10T14:00:46;2.38;;;2.28;;
6823;SDS011;58633;49.470;11.004;2023-06-10T14:03:12;2.22;;;2.13;;
6823;SDS011;58633;49.470;11.004;2023-06-10T14:05:37;2.20;;;2.10;;
6823;SDS011;58633;49.470;11.004;2023-06-10T14:08:04;2.40;;;2.30;;
6823;SDS011;58633;49.470;11.004;2023-06-10T14:10:29;2.28;;;2.17;;
6823;SDS011;58633;49.470;11.004;2023-06-10T14:12:55;2.35;;;2.15;;
6823;SDS011;58633;49.470;11.004;2023-06-10T14:15:20;3.10;;;2.25;;
6823;SDS011;58633;49.470;11.004;2023-06-10T14:17:46;2.65;;;2.00;;
6823;SDS011;58633;49.470;11.004;2023-06-10T14:20:12;2.53;;;2.33;;
6823;SDS011;58633;49.470;11.004;2023-06-10T14:22:37;3.22;;;2.47;;
6823;SDS011;58633;49.470;11.004;2023-06-10T14:25:03;2.80;;;2.60;;
6823;SDS011;58633;49.470;11.004;2023-06-10T14:27:29;2.65;;;2.45;;
6823;SDS011;58633;49.470;11.004;2023-06-10T14:29:54;2.75;;;2.30;;
6823;SDS011;58633;49.470;11.004;2023-06-10T14:32:20;2.20;;;2.10;;
6823;SDS011;58633;49.470;11.004;2023-06-10T14:34:45;2.75;;;2.25;;
6823;SDS011;58633;49.470;11.004;2023-06-10T14:37:12;2.13;;;2.03;;
6823;SDS011;58633;49.470;11.004;2023-06-10T14:39:37;2.60;;;2.13;;
6823;SDS011;58633;49.470;11.004;2023-06-10T14:42:03;2.17;;;2.03;;
6823;SDS011;58633;49.470;11.004;2023-06-10T14:44:29;2.30;;;2.05;;
6823;SDS011;58633;49.470;11.004;2023-06-10T14:46:54;2.95;;;2.30;;
6823;SDS011;58633;49.470;11.004;2023-06-10T14:49:20;3.08;;;2.20;;
6823;SDS011;58633;49.470;11.004;2023-06-10T14:51:45;2.10;;;2.00;;
6823;SDS011;58633;49.470;11.004;2023-06-10T14:54:11;3.38;;;2.40;;
6823;SDS011;58633;49.470;11.004;2023-06-10T14:56:36;4.07;;;2.60;;
6823;SDS011;58633;49.470;11.004;2023-06-10T14:59:02;2.30;;;2.10;;
6823;SDS011;58633;49.470;11.004;2023-06-10T15:01:27;2.40;;;2.20;;
6823;SDS011;58633;49.470;11.004;2023-06-10T15:03:53;1.92;;;1.83;;
6823;SDS011;58633;49.470;11.004;2023-06-10T15:06:18;1.95;;;1.85;;
6823;SDS011;58633;49.470;11.004;2023-06-10T15:08:47;2.30;;;2.10;;
6823;SDS011;58633;49.470;11.004;2023-06-10T15:11:13;1.88;;;1.77;;